sensor_id;sensor_type;location;lat;lon;timestamp;P1;durP1;ratioP1;P2;durP2;ratioP2
1346;SDS011;667;48.796;9.480;2023-07-29T00:01:09;2.93;;;2.73;;
1346;SDS011;667;48.796;9.480;2023-07-29T00:03:34;4.30;;;2.73;;
1346;SDS011;667;48.796;9.480;2023-07-29T00:06:00;4.30;;;2.20;;
1346;SDS011;667;48.796;9.480;2023-07-29T00:08:26;3.20;;;2.67;;
1346;SDS011;667;48.796;9.480;2023-07-29T00:10:51;3.93;;;2.50;;
1346;SDS011;667;48.796;9.480;2023-07-29T00:13:17;2.13;;;2.00;;
1346;SDS011;667;48.796;9.480;2023-07-29T00:15:42;3.10;;;2.07;;
1346;SDS011;667;48.796;9.480;2023-07-29T00:18:08;2.50;;;1.97;;
1346;SDS011;667;48.796;9.480;2023-07-29T00:20:33;2.03;;;1.83;;
1346;SDS011;667;48.796;9.480;2023-07-29T00:22:59;3.67;;;1.83;;
1346;SDS011;667;48.796;9.480;2023-07-29T00:25:26;4.27;;;2.07;;
1346;SDS011;667;48.796;9.480;2023-07-29T00:27:52;3.03;;;2.20;;
1346;SDS011;667;48.796;9.480;2023-07-29T00:30:21;2.97;;;1.90;;
1346;SDS011;667;48.796;9.480;2023-07-29T00:32:46;2.10;;;1.97;;
1346;SDS011;667;48.796;9.480;2023-07-29T00:35:12;2.93;;;2.00;;
1346;SDS011;667;48.796;9.480;2023-07-29T00:37:38;4.90;;;2.10;;
1346;SDS011;667;48.796;9.480;2023-07-29T00:40:06;2.80;;;2.20;;
1346;SDS011;667;48.796;9.480;2023-07-29T00:42:46;2.70;;;2.30;;
1346;SDS011;667;48.796;9.480;2023-07-29T00:45:12;3.17;;;2.83;;
1346;SDS011;667;48.796;9.480;2023-07-29T00:47:37;2.50;;;2.30;;
1346;SDS011;667;48.796;9.480;2023-07-29T00:50:04;2.40;;;2.20;;
1346;SDS011;667;48.796;9.480;2023-07-29T00:52:34;2.83;;;2.23;;
1346;SDS011;667;48.796;9.480;2023-07-29T00:54:59;2.60;;;2.10;;
1346;SDS011;667;48.796;9.480;2023-07-29T00:57:25;2.93;;;2.73;;
1346;SDS011;667;48.796;9.480;2023-07-29T00:59:53;3.27;;;2.23;;
1346;SDS011;667;48.796;9.480;2023-07-29T01:02:19;2.63;;;2.43;;
1346;SDS011;667;48.796;9.480;2023-07-29T01:04:45;2.83;;;2.37;;
1346;SDS011;667;48.796;9.480;2023-07-29T01:10:01;4.43;;;2.47;;
1346;SDS011;667;48.796;9.480;2023-07-29T01:17:40;1.87;;;1.77;;
1346;SDS011;667;48.796;9.480;2023-07-29T01:20:12;3.40;;;2.23;;
1346;SDS011;667;48.796;9.480;2023-07-29T01:22:40;3.00;;;1.97;;
1346;SDS011;667;48.796;9.480;2023-07-29T01:25:07;2.47;;;2.27;;
1346;SDS011;667;48.796;9.480;2023-07-29T01:27:33;2.30;;;2.10;;
1346;SDS011;667;48.796;9.480;2023-07-29T01:29:58;2.70;;;1.90;;
1346;SDS011;667;48.796;9.480;2023-07-29T01:32:28;2.03;;;1.93;;
1346;SDS011;667;48.796;9.480;2023-07-29T01:37:35;1.87;;;1.37;;
1346;SDS011;667;48.796;9.480;2023-07-29T01:40:03;1.53;;;1.43;;
1346;SDS011;667;48.796;9.480;2023-07-29T01:42:30;1.73;;;1.63;;
1346;SDS011;667;48.796;9.480;2023-07-29T01:44:57;2.63;;;1.87;;
1346;SDS011;667;48.796;9.480;2023-07-29T01:47:22;1.80;;;1.70;;
1346;SDS011;667;48.796;9.480;2023-07-29T01:49:48;1.60;;;1.50;;
1346;SDS011;667;48.796;9.480;2023-07-29T01:52:13;1.37;;;1.27;;
1346;SDS011;667;48.796;9.480;2023-07-29T01:54:39;2.30;;;1.47;;
1346;SDS011;667;48.796;9.480;2023-07-29T01:57:05;2.03;;;1.83;;
1346;SDS011;667;48.796;9.480;2023-07-29T01:59:30;3.40;;;1.80;;
1346;SDS011;667;48.796;9.480;2023-07-29T02:01:56;5.50;;;2.67;;
1346;SDS011;667;48.796;9.480;2023-07-29T02:04:22;2.50;;;2.00;;
1346;SDS011;667;48.796;9.480;2023-07-29T02:06:47;2.63;;;2.20;;
1346;SDS011;667;48.796;9.480;2023-07-29T02:09:13;2.37;;;1.80;;
1346;SDS011;667;48.796;9.480;2023-07-29T02:11:39;2.60;;;2.00;;
1346;SDS011;667;48.796;9.480;2023-07-29T02:14:04;1.70;;;1.60;;
1346;SDS011;667;48.796;9.480;2023-07-29T02:16:30;1.70;;;1.60;;
1346;SDS011;667;48.796;9.480;2023-07-29T02:18:57;2.07;;;1.97;;
1346;SDS011;667;48.796;9.480;2023-07-29T02:21:23;1.70;;;1.40;;
1346;SDS011;667;48.796;9.480;2023-07-29T02:23:50;4.43;;;2.20;;
1346;SDS011;667;48.796;9.480;2023-07-29T02:26:16;1.70;;;1.60;;
1346;SDS011;667;48.796;9.480;2023-07-29T02:28:42;1.77;;;1.63;;
1346;SDS011;667;48.796;9.480;2023-07-29T02:31:14;4.17;;;2.40;;
1346;SDS011;667;48.796;9.480;2023-07-29T02:33:48;7.07;;;2.20;;
1346;SDS011;667;48.796;9.480;2023-07-29T02:36:14;4.30;;;1.77;;
1346;SDS011;667;48.796;9.480;2023-07-29T02:38:40;1.70;;;1.60;;
1346;SDS011;667;48.796;9.480;2023-07-29T02:41:07;2.40;;;2.20;;
1346;SDS011;667;48.796;9.480;2023-07-29T02:43:34;2.20;;;2.00;;
1346;SDS011;667;48.796;9.480;2023-07-29T02:46:01;1.87;;;1.63;;
1346;SDS011;667;48.796;9.480;2023-07-29T02:48:27;2.00;;;1.87;;
1346;SDS011;667;48.796;9.480;2023-07-29T02:50:53;1.70;;;1.60;;
1346;SDS011;667;48.796;9.480;2023-07-29T02:53:21;2.93;;;2.10;;
1346;SDS011;667;48.796;9.480;2023-07-29T02:55:47;1.83;;;1.67;;
1346;SDS011;667;48.796;9.480;2023-07-29T02:58:13;1.80;;;1.70;;
1346;SDS011;667;48.796;9.480;2023-07-29T03:00:39;2.03;;;1.93;;
1346;SDS011;667;48.796;9.480;2023-07-29T03:03:06;2.30;;;1.67;;
1346;SDS011;667;48.796;9.480;2023-07-29T03:05:33;2.23;;;1.80;;
1346;SDS011;667;48.796;9.480;2023-07-29T03:07:58;2.00;;;1.83;;
1346;SDS011;667;48.796;9.480;2023-07-29T03:10:24;2.00;;;1.90;;
1346;SDS011;667;48.796;9.480;2023-07-29T03:12:50;2.37;;;1.47;;
1346;SDS011;667;48.796;9.480;2023-07-29T03:15:16;2.23;;;2.03;;
1346;SDS011;667;48.796;9.480;2023-07-29T03:17:41;2.70;;;2.17;;
1346;SDS011;667;48.796;9.480;2023-07-29T03:20:07;2.57;;;2.00;;
1346;SDS011;667;48.796;9.480;2023-07-29T03:22:33;1.70;;;1.60;;
1346;SDS011;667;48.796;9.480;2023-07-29T03:24:59;1.97;;;1.87;;
1346;SDS011;667;48.796;9.480;2023-07-29T03:27:24;3.30;;;1.90;;
1346;SDS011;667;48.796;9.480;2023-07-29T03:29:50;3.50;;;1.70;;
1346;SDS011;667;48.796;9.480;2023-07-29T03:32:16;3.00;;;2.13;;
1346;SDS011;667;48.796;9.480;2023-07-29T03:34:42;2.13;;;2.03;;
1346;SDS011;667;48.796;9.480;2023-07-29T03:37:08;3.10;;;2.80;;
1346;SDS011;667;48.796;9.480;2023-07-29T03:39:34;3.60;;;2.33;;
1346;SDS011;667;48.796;9.480;2023-07-29T03:41:59;2.10;;;1.90;;
1346;SDS011;667;48.796;9.480;2023-07-29T03:44:25;11.00;;;2.67;;
1346;SDS011;667;48.796;9.480;2023-07-29T03:46:50;2.60;;;2.20;;
1346;SDS011;667;48.796;9.480;2023-07-29T03:49:16;1.50;;;1.40;;
1346;SDS011;667;48.796;9.480;2023-07-29T03:51:41;2.10;;;2.00;;
1346;SDS011;667;48.796;9.480;2023-07-29T03:54:07;1.90;;;1.80;;
1346;SDS011;667;48.796;9.480;2023-07-29T03:56:32;2.63;;;1.70;;
1346;SDS011;667;48.796;9.480;2023-07-29T03:59:03;2.00;;;1.80;;
1346;SDS011;667;48.796;9.480;2023-07-29T04:01:30;2.73;;;2.30;;
1346;SDS011;667;48.796;9.480;2023-07-29T04:03:55;2.13;;;2.03;;
1346;SDS011;667;48.796;9.480;2023-07-29T04:06:21;3.23;;;2.43;;
1346;SDS011;667;48.796;9.480;2023-07-29T04:08:47;2.87;;;2.00;;
1346;SDS011;667;48.796;9.480;2023-07-29T04:11:13;2.37;;;2.17;;
1346;SDS011;667;48.796;9.480;2023-07-29T04:13:39;3.93;;;2.10;;
1346;SDS011;667;48.796;9.480;2023-07-29T04:16:04;3.07;;;2.33;;
1346;SDS011;667;48.796;9.480;2023-07-29T04:18:30;2.63;;;2.43;;
1346;SDS011;667;48.796;9.480;2023-07-29T04:20:56;2.30;;;2.20;;
1346;SDS011;667;48.796;9.480;2023-07-29T04:23:21;2.50;;;2.30;;
1346;SDS011;667;48.796;9.480;2023-07-29T04:25:47;3.40;;;2.80;;
1346;SDS011;667;48.796;9.480;2023-07-29T04:28:13;2.30;;;2.20;;
1346;SDS011;667;48.796;9.480;2023-07-29T04:30:38;2.50;;;2.33;;
1346;SDS011;667;48.796;9.480;2023-07-29T04:33:04;2.97;;;2.20;;
1346;SDS011;667;48.796;9.480;2023-07-29T04:35:29;2.40;;;2.20;;
1346;SDS011;667;48.796;9.480;2023-07-29T04:37:55;2.47;;;2.27;;
1346;SDS011;667;48.796;9.480;2023-07-29T04:40:21;5.20;;;2.50;;
1346;SDS011;667;48.796;9.480;2023-07-29T04:42:48;3.03;;;2.73;;
1346;SDS011;667;48.796;9.480;2023-07-29T04:45:14;2.67;;;2.47;;
1346;SDS011;667;48.796;9.480;2023-07-29T04:47:41;5.63;;;2.70;;
1346;SDS011;667;48.796;9.480;2023-07-29T04:50:06;4.60;;;2.60;;
1346;SDS011;667;48.796;9.480;2023-07-29T04:52:32;2.63;;;2.43;;
1346;SDS011;667;48.796;9.480;2023-07-29T04:54:58;4.03;;;2.67;;
1346;SDS011;667;48.796;9.480;2023-07-29T04:57:24;2.60;;;2.40;;
1346;SDS011;667;48.796;9.480;2023-07-29T04:59:49;2.83;;;2.63;;
1346;SDS011;667;48.796;9.480;2023-07-29T05:02:15;3.03;;;2.70;;
1346;SDS011;667;48.796;9.480;2023-07-29T05:04:40;3.27;;;2.80;;
1346;SDS011;667;48.796;9.480;2023-07-29T05:07:06;6.77;;;2.80;;
1346;SDS011;667;48.796;9.480;2023-07-29T05:09:31;4.90;;;2.80;;
1346;SDS011;667;48.796;9.480;2023-07-29T05:11:57;3.30;;;2.60;;
1346;SDS011;667;48.796;9.480;2023-07-29T05:14:23;3.00;;;2.77;;
1346;SDS011;667;48.796;9.480;2023-07-29T05:16:48;2.80;;;2.60;;
1346;SDS011;667;48.796;9.480;2023-07-29T05:19:14;3.60;;;2.90;;
1346;SDS011;667;48.796;9.480;2023-07-29T05:21:40;2.33;;;2.13;;
1346;SDS011;667;48.796;9.480;2023-07-29T05:24:06;5.40;;;2.77;;
1346;SDS011;667;48.796;9.480;2023-07-29T05:26:31;3.53;;;2.40;;
1346;SDS011;667;48.796;9.480;2023-07-29T05:28:57;2.90;;;2.60;;
1346;SDS011;667;48.796;9.480;2023-07-29T05:31:23;3.10;;;2.50;;
1346;SDS011;667;48.796;9.480;2023-07-29T05:33:48;3.20;;;2.87;;
1346;SDS011;667;48.796;9.480;2023-07-29T05:36:14;2.90;;;2.67;;
1346;SDS011;667;48.796;9.480;2023-07-29T05:38:40;2.63;;;2.43;;
1346;SDS011;667;48.796;9.480;2023-07-29T05:41:06;3.10;;;2.47;;
1346;SDS011;667;48.796;9.480;2023-07-29T05:43:32;2.80;;;2.60;;
1346;SDS011;667;48.796;9.480;2023-07-29T05:45:57;3.30;;;3.00;;
1346;SDS011;667;48.796;9.480;2023-07-29T05:48:23;2.80;;;2.50;;
1346;SDS011;667;48.796;9.480;2023-07-29T05:50:48;2.53;;;2.33;;
1346;SDS011;667;48.796;9.480;2023-07-29T05:53:15;7.80;;;2.40;;
1346;SDS011;667;48.796;9.480;2023-07-29T05:55:40;2.60;;;2.40;;
1346;SDS011;667;48.796;9.480;2023-07-29T05:58:06;3.97;;;3.57;;
1346;SDS011;667;48.796;9.480;2023-07-29T06:00:32;3.40;;;3.10;;
1346;SDS011;667;48.796;9.480;2023-07-29T06:02:57;4.50;;;3.90;;
1346;SDS011;667;48.796;9.480;2023-07-29T06:05:23;3.87;;;3.50;;
1346;SDS011;667;48.796;9.480;2023-07-29T06:07:48;4.30;;;3.90;;
1346;SDS011;667;48.796;9.480;2023-07-29T06:10:15;4.10;;;3.80;;
1346;SDS011;667;48.796;9.480;2023-07-29T06:12:44;3.63;;;3.33;;
1346;SDS011;667;48.796;9.480;2023-07-29T06:15:10;4.40;;;3.77;;
1346;SDS011;667;48.796;9.480;2023-07-29T06:20:06;4.30;;;3.90;;
1346;SDS011;667;48.796;9.480;2023-07-29T06:22:32;4.20;;;3.70;;
1346;SDS011;667;48.796;9.480;2023-07-29T06:24:57;4.00;;;3.70;;
1346;SDS011;667;48.796;9.480;2023-07-29T06:27:23;4.43;;;4.00;;
1346;SDS011;667;48.796;9.480;2023-07-29T06:29:50;5.53;;;5.03;;
1346;SDS011;667;48.796;9.480;2023-07-29T06:32:15;6.90;;;4.97;;
1346;SDS011;667;48.796;9.480;2023-07-29T06:34:41;4.90;;;4.53;;
1346;SDS011;667;48.796;9.480;2023-07-29T06:37:07;4.60;;;4.20;;
1346;SDS011;667;48.796;9.480;2023-07-29T06:39:32;4.20;;;3.90;;
1346;SDS011;667;48.796;9.480;2023-07-29T06:41:58;4.53;;;4.13;;
1346;SDS011;667;48.796;9.480;2023-07-29T06:44:23;3.27;;;3.07;;
1346;SDS011;667;48.796;9.480;2023-07-29T06:46:49;4.70;;;3.50;;
1346;SDS011;667;48.796;9.480;2023-07-29T06:49:14;2.90;;;2.57;;
1346;SDS011;667;48.796;9.480;2023-07-29T06:51:40;6.03;;;2.97;;
1346;SDS011;667;48.796;9.480;2023-07-29T06:54:05;3.60;;;2.50;;
1346;SDS011;667;48.796;9.480;2023-07-29T06:56:31;3.47;;;2.57;;
1346;SDS011;667;48.796;9.480;2023-07-29T06:58:57;2.33;;;2.13;;
1346;SDS011;667;48.796;9.480;2023-07-29T07:01:22;2.20;;;2.00;;
1346;SDS011;667;48.796;9.480;2023-07-29T07:03:48;2.10;;;1.90;;
1346;SDS011;667;48.796;9.480;2023-07-29T07:06:13;2.50;;;2.30;;
1346;SDS011;667;48.796;9.480;2023-07-29T07:08:39;2.77;;;2.03;;
1346;SDS011;667;48.796;9.480;2023-07-29T07:11:04;2.67;;;2.30;;
1346;SDS011;667;48.796;9.480;2023-07-29T07:13:30;2.50;;;2.30;;
1346;SDS011;667;48.796;9.480;2023-07-29T07:15:56;1.80;;;1.70;;
1346;SDS011;667;48.796;9.480;2023-07-29T07:18:22;2.73;;;2.17;;
1346;SDS011;667;48.796;9.480;2023-07-29T07:20:48;2.70;;;2.50;;
1346;SDS011;667;48.796;9.480;2023-07-29T07:23:14;2.03;;;1.80;;
1346;SDS011;667;48.796;9.480;2023-07-29T07:25:40;3.00;;;2.40;;
1346;SDS011;667;48.796;9.480;2023-07-29T07:28:07;2.73;;;2.07;;
1346;SDS011;667;48.796;9.480;2023-07-29T07:30:34;3.43;;;2.53;;
1346;SDS011;667;48.796;9.480;2023-07-29T07:33:00;3.70;;;3.40;;
1346;SDS011;667;48.796;9.480;2023-07-29T07:35:26;2.73;;;2.47;;
1346;SDS011;667;48.796;9.480;2023-07-29T07:37:51;3.70;;;2.70;;
1346;SDS011;667;48.796;9.480;2023-07-29T07:40:17;2.57;;;2.23;;
1346;SDS011;667;48.796;9.480;2023-07-29T07:42:43;2.47;;;1.80;;
1346;SDS011;667;48.796;9.480;2023-07-29T07:45:08;3.43;;;2.13;;
1346;SDS011;667;48.796;9.480;2023-07-29T07:47:34;2.67;;;2.10;;
1346;SDS011;667;48.796;9.480;2023-07-29T07:49:59;2.27;;;1.87;;
1346;SDS011;667;48.796;9.480;2023-07-29T07:52:25;2.80;;;2.20;;
1346;SDS011;667;48.796;9.480;2023-07-29T07:54:54;3.47;;;2.27;;
1346;SDS011;667;48.796;9.480;2023-07-29T07:57:20;2.77;;;2.30;;
1346;SDS011;667;48.796;9.480;2023-07-29T07:59:46;2.10;;;1.90;;
1346;SDS011;667;48.796;9.480;2023-07-29T08:02:12;3.67;;;1.77;;
1346;SDS011;667;48.796;9.480;2023-07-29T08:04:38;1.63;;;1.53;;
1346;SDS011;667;48.796;9.480;2023-07-29T08:07:03;3.43;;;1.67;;
1346;SDS011;667;48.796;9.480;2023-07-29T08:09:29;2.13;;;1.80;;
1346;SDS011;667;48.796;9.480;2023-07-29T08:11:55;1.70;;;1.60;;
1346;SDS011;667;48.796;9.480;2023-07-29T08:14:21;2.07;;;1.80;;
1346;SDS011;667;48.796;9.480;2023-07-29T08:16:46;1.50;;;1.40;;
1346;SDS011;667;48.796;9.480;2023-07-29T08:19:12;1.60;;;1.50;;
1346;SDS011;667;48.796;9.480;2023-07-29T08:21:37;1.77;;;1.67;;
1346;SDS011;667;48.796;9.480;2023-07-29T08:24:03;1.60;;;1.50;;
1346;SDS011;667;48.796;9.480;2023-07-29T08:26:29;1.70;;;1.60;;
1346;SDS011;667;48.796;9.480;2023-07-29T08:28:54;1.57;;;1.47;;
1346;SDS011;667;48.796;9.480;2023-07-29T08:31:20;1.97;;;1.80;;
1346;SDS011;667;48.796;9.480;2023-07-29T08:33:45;2.70;;;2.17;;
1346;SDS011;667;48.796;9.480;2023-07-29T08:36:11;2.20;;;2.00;;
1346;SDS011;667;48.796;9.480;2023-07-29T08:38:36;2.57;;;2.37;;
1346;SDS011;667;48.796;9.480;2023-07-29T08:43:42;2.50;;;2.10;;
1346;SDS011;667;48.796;9.480;2023-07-29T08:46:13;2.43;;;2.23;;
1346;SDS011;667;48.796;9.480;2023-07-29T08:48:41;2.80;;;2.33;;
1346;SDS011;667;48.796;9.480;2023-07-29T08:51:09;2.37;;;2.17;;
1346;SDS011;667;48.796;9.480;2023-07-29T08:53:35;3.37;;;2.23;;
1346;SDS011;667;48.796;9.480;2023-07-29T08:56:02;2.17;;;2.07;;
1346;SDS011;667;48.796;9.480;2023-07-29T08:58:28;3.97;;;1.70;;
1346;SDS011;667;48.796;9.480;2023-07-29T09:00:54;2.20;;;2.00;;
1346;SDS011;667;48.796;9.480;2023-07-29T09:03:20;2.50;;;2.00;;
1346;SDS011;667;48.796;9.480;2023-07-29T09:05:47;2.70;;;2.40;;
1346;SDS011;667;48.796;9.480;2023-07-29T09:08:13;3.70;;;2.30;;
1346;SDS011;667;48.796;9.480;2023-07-29T09:10:39;2.20;;;2.10;;
1346;SDS011;667;48.796;9.480;2023-07-29T09:13:05;3.30;;;2.30;;
1346;SDS011;667;48.796;9.480;2023-07-29T09:15:32;3.30;;;3.00;;
1346;SDS011;667;48.796;9.480;2023-07-29T09:17:59;2.97;;;2.67;;
1346;SDS011;667;48.796;9.480;2023-07-29T09:20:41;2.40;;;2.20;;
1346;SDS011;667;48.796;9.480;2023-07-29T09:23:07;2.10;;;2.00;;
1346;SDS011;667;48.796;9.480;2023-07-29T09:25:37;2.63;;;2.33;;
1346;SDS011;667;48.796;9.480;2023-07-29T09:28:10;2.17;;;2.07;;
1346;SDS011;667;48.796;9.480;2023-07-29T09:30:38;3.00;;;2.23;;
1346;SDS011;667;48.796;9.480;2023-07-29T09:33:13;2.57;;;2.13;;
1346;SDS011;667;48.796;9.480;2023-07-29T09:35:38;3.23;;;2.10;;
1346;SDS011;667;48.796;9.480;2023-07-29T09:38:04;2.53;;;2.17;;
1346;SDS011;667;48.796;9.480;2023-07-29T09:40:37;2.83;;;2.40;;
1346;SDS011;667;48.796;9.480;2023-07-29T09:43:05;2.50;;;2.30;;
1346;SDS011;667;48.796;9.480;2023-07-29T09:45:33;2.43;;;1.90;;
1346;SDS011;667;48.796;9.480;2023-07-29T09:48:00;2.40;;;2.20;;
1346;SDS011;667;48.796;9.480;2023-07-29T09:50:26;3.50;;;2.30;;
1346;SDS011;667;48.796;9.480;2023-07-29T09:52:53;2.53;;;2.33;;
1346;SDS011;667;48.796;9.480;2023-07-29T09:55:23;2.43;;;2.23;;
1346;SDS011;667;48.796;9.480;2023-07-29T09:57:59;2.40;;;2.20;;
1346;SDS011;667;48.796;9.480;2023-07-29T10:00:28;2.80;;;2.50;;
1346;SDS011;667;48.796;9.480;2023-07-29T10:02:54;2.93;;;2.10;;
1346;SDS011;667;48.796;9.480;2023-07-29T10:05:21;2.60;;;1.97;;
1346;SDS011;667;48.796;9.480;2023-07-29T10:07:48;2.60;;;2.40;;
1346;SDS011;667;48.796;9.480;2023-07-29T10:10:14;2.50;;;2.30;;
1346;SDS011;667;48.796;9.480;2023-07-29T10:12:40;2.43;;;2.03;;
1346;SDS011;667;48.796;9.480;2023-07-29T10:15:08;2.13;;;2.03;;
1346;SDS011;667;48.796;9.480;2023-07-29T10:17:34;2.30;;;2.10;;
1346;SDS011;667;48.796;9.480;2023-07-29T10:20:01;3.43;;;2.10;;
1346;SDS011;667;48.796;9.480;2023-07-29T10:22:33;2.70;;;1.93;;
1346;SDS011;667;48.796;9.480;2023-07-29T10:25:21;2.67;;;2.47;;
1346;SDS011;667;48.796;9.480;2023-07-29T10:27:56;2.57;;;2.37;;
1346;SDS011;667;48.796;9.480;2023-07-29T10:30:25;2.43;;;2.23;;
1346;SDS011;667;48.796;9.480;2023-07-29T10:32:53;2.73;;;2.53;;
1346;SDS011;667;48.796;9.480;2023-07-29T10:35:19;2.50;;;2.30;;
1346;SDS011;667;48.796;9.480;2023-07-29T10:37:44;2.70;;;2.10;;
1346;SDS011;667;48.796;9.480;2023-07-29T10:40:11;1.87;;;1.77;;
1346;SDS011;667;48.796;9.480;2023-07-29T10:42:37;2.60;;;2.40;;
1346;SDS011;667;48.796;9.480;2023-07-29T10:45:16;2.17;;;1.50;;
1346;SDS011;667;48.796;9.480;2023-07-29T10:47:45;2.20;;;1.23;;
1346;SDS011;667;48.796;9.480;2023-07-29T10:50:19;1.33;;;1.17;;
1346;SDS011;667;48.796;9.480;2023-07-29T10:52:48;1.33;;;1.13;;
1346;SDS011;667;48.796;9.480;2023-07-29T10:57:50;1.70;;;1.60;;
1346;SDS011;667;48.796;9.480;2023-07-29T11:00:15;1.43;;;1.33;;
1346;SDS011;667;48.796;9.480;2023-07-29T11:02:44;2.50;;;1.60;;
1346;SDS011;667;48.796;9.480;2023-07-29T11:05:24;2.20;;;2.00;;
1346;SDS011;667;48.796;9.480;2023-07-29T11:07:50;2.13;;;1.80;;
1346;SDS011;667;48.796;9.480;2023-07-29T11:10:16;1.53;;;1.43;;
1346;SDS011;667;48.796;9.480;2023-07-29T11:12:48;2.90;;;2.00;;
1346;SDS011;667;48.796;9.480;2023-07-29T11:17:48;1.63;;;1.53;;
1346;SDS011;667;48.796;9.480;2023-07-29T11:20:19;2.63;;;1.83;;
1346;SDS011;667;48.796;9.480;2023-07-29T11:22:46;1.80;;;1.50;;
1346;SDS011;667;48.796;9.480;2023-07-29T11:25:14;2.53;;;1.77;;
1346;SDS011;667;48.796;9.480;2023-07-29T11:27:41;2.60;;;1.77;;
1346;SDS011;667;48.796;9.480;2023-07-29T11:30:07;1.70;;;1.60;;
1346;SDS011;667;48.796;9.480;2023-07-29T11:32:35;2.10;;;1.80;;
1346;SDS011;667;48.796;9.480;2023-07-29T11:35:05;2.80;;;2.47;;
1346;SDS011;667;48.796;9.480;2023-07-29T11:37:33;1.80;;;1.70;;
1346;SDS011;667;48.796;9.480;2023-07-29T11:39:59;3.30;;;1.70;;
1346;SDS011;667;48.796;9.480;2023-07-29T11:42:24;4.40;;;1.80;;
1346;SDS011;667;48.796;9.480;2023-07-29T11:44:52;1.83;;;1.73;;
1346;SDS011;667;48.796;9.480;2023-07-29T11:47:18;2.90;;;2.70;;
1346;SDS011;667;48.796;9.480;2023-07-29T11:49:44;1.90;;;1.70;;
1346;SDS011;667;48.796;9.480;2023-07-29T11:52:10;3.80;;;1.67;;
1346;SDS011;667;48.796;9.480;2023-07-29T11:54:36;2.17;;;1.90;;
1346;SDS011;667;48.796;9.480;2023-07-29T11:57:06;2.00;;;1.80;;
1346;SDS011;667;48.796;9.480;2023-07-29T11:59:33;5.03;;;1.87;;
1346;SDS011;667;48.796;9.480;2023-07-29T12:02:00;1.60;;;1.50;;
1346;SDS011;667;48.796;9.480;2023-07-29T12:04:28;1.97;;;1.87;;
1346;SDS011;667;48.796;9.480;2023-07-29T12:06:54;1.90;;;1.80;;
1346;SDS011;667;48.796;9.480;2023-07-29T12:09:21;2.13;;;1.87;;
1346;SDS011;667;48.796;9.480;2023-07-29T12:11:46;2.70;;;2.50;;
1346;SDS011;667;48.796;9.480;2023-07-29T12:14:12;1.77;;;1.47;;
1346;SDS011;667;48.796;9.480;2023-07-29T12:16:41;1.77;;;1.67;;
1346;SDS011;667;48.796;9.480;2023-07-29T12:21:36;2.10;;;1.70;;
1346;SDS011;667;48.796;9.480;2023-07-29T12:24:02;1.57;;;1.47;;
1346;SDS011;667;48.796;9.480;2023-07-29T12:26:28;1.67;;;1.57;;
1346;SDS011;667;48.796;9.480;2023-07-29T12:28:54;1.83;;;1.73;;
1346;SDS011;667;48.796;9.480;2023-07-29T12:31:21;2.30;;;2.10;;
1346;SDS011;667;48.796;9.480;2023-07-29T12:33:55;5.13;;;2.03;;
1346;SDS011;667;48.796;9.480;2023-07-29T12:36:21;4.00;;;2.03;;
1346;SDS011;667;48.796;9.480;2023-07-29T12:38:47;2.43;;;1.80;;
1346;SDS011;667;48.796;9.480;2023-07-29T12:41:12;1.60;;;1.50;;
1346;SDS011;667;48.796;9.480;2023-07-29T12:43:38;2.20;;;2.00;;
1346;SDS011;667;48.796;9.480;2023-07-29T12:46:04;1.97;;;1.80;;
1346;SDS011;667;48.796;9.480;2023-07-29T12:48:29;2.23;;;2.03;;
1346;SDS011;667;48.796;9.480;2023-07-29T12:50:55;2.20;;;2.10;;
1346;SDS011;667;48.796;9.480;2023-07-29T12:53:20;2.27;;;2.13;;
1346;SDS011;667;48.796;9.480;2023-07-29T12:55:46;2.37;;;2.17;;
1346;SDS011;667;48.796;9.480;2023-07-29T12:58:11;2.70;;;2.50;;
1346;SDS011;667;48.796;9.480;2023-07-29T13:00:37;2.67;;;2.47;;
1346;SDS011;667;48.796;9.480;2023-07-29T13:03:03;4.03;;;1.77;;
1346;SDS011;667;48.796;9.480;2023-07-29T13:05:30;2.57;;;2.20;;
1346;SDS011;667;48.796;9.480;2023-07-29T13:07:56;2.53;;;2.33;;
1346;SDS011;667;48.796;9.480;2023-07-29T13:10:21;2.50;;;2.30;;
1346;SDS011;667;48.796;9.480;2023-07-29T13:12:47;2.53;;;2.33;;
1346;SDS011;667;48.796;9.480;2023-07-29T13:15:13;2.60;;;2.40;;
1346;SDS011;667;48.796;9.480;2023-07-29T13:17:39;2.47;;;2.27;;
1346;SDS011;667;48.796;9.480;2023-07-29T13:20:05;5.23;;;2.50;;
1346;SDS011;667;48.796;9.480;2023-07-29T13:22:31;2.30;;;2.20;;
1346;SDS011;667;48.796;9.480;2023-07-29T13:24:57;4.17;;;2.70;;
1346;SDS011;667;48.796;9.480;2023-07-29T13:27:22;2.50;;;2.30;;
1346;SDS011;667;48.796;9.480;2023-07-29T13:29:49;1.90;;;1.80;;
1346;SDS011;667;48.796;9.480;2023-07-29T13:32:14;2.30;;;2.10;;
1346;SDS011;667;48.796;9.480;2023-07-29T13:34:40;1.90;;;1.80;;
1346;SDS011;667;48.796;9.480;2023-07-29T13:37:05;2.27;;;2.07;;
1346;SDS011;667;48.796;9.480;2023-07-29T13:39:31;1.93;;;1.83;;
1346;SDS011;667;48.796;9.480;2023-07-29T13:41:57;2.70;;;2.50;;
1346;SDS011;667;48.796;9.480;2023-07-29T13:44:22;2.00;;;1.90;;
1346;SDS011;667;48.796;9.480;2023-07-29T13:46:48;2.10;;;1.90;;
1346;SDS011;667;48.796;9.480;2023-07-29T13:49:13;2.17;;;2.03;;
1346;SDS011;667;48.796;9.480;2023-07-29T13:51:39;2.17;;;2.07;;
1346;SDS011;667;48.796;9.480;2023-07-29T13:54:05;2.57;;;2.37;;
1346;SDS011;667;48.796;9.480;2023-07-29T13:56:30;2.60;;;2.37;;
1346;SDS011;667;48.796;9.480;2023-07-29T13:58:56;2.83;;;2.63;;
1346;SDS011;667;48.796;9.480;2023-07-29T14:01:21;2.77;;;2.57;;
1346;SDS011;667;48.796;9.480;2023-07-29T14:03:47;2.80;;;2.60;;
1346;SDS011;667;48.796;9.480;2023-07-29T14:06:12;3.13;;;2.60;;
1346;SDS011;667;48.796;9.480;2023-07-29T14:08:38;2.10;;;2.00;;
1346;SDS011;667;48.796;9.480;2023-07-29T14:11:05;2.77;;;2.33;;
1346;SDS011;667;48.796;9.480;2023-07-29T14:13:31;2.87;;;2.67;;
1346;SDS011;667;48.796;9.480;2023-07-29T14:15:56;2.80;;;2.60;;
1346;SDS011;667;48.796;9.480;2023-07-29T14:18:22;2.77;;;2.57;;
1346;SDS011;667;48.796;9.480;2023-07-29T14:20:48;2.63;;;2.43;;
1346;SDS011;667;48.796;9.480;2023-07-29T14:23:14;2.60;;;2.40;;
1346;SDS011;667;48.796;9.480;2023-07-29T14:25:39;3.13;;;2.83;;
1346;SDS011;667;48.796;9.480;2023-07-29T14:28:05;3.27;;;2.97;;
1346;SDS011;667;48.796;9.480;2023-07-29T14:30:31;2.90;;;2.70;;
1346;SDS011;667;48.796;9.480;2023-07-29T14:32:56;2.67;;;2.47;;
1346;SDS011;667;48.796;9.480;2023-07-29T14:35:22;2.70;;;2.50;;
1346;SDS011;667;48.796;9.480;2023-07-29T14:37:47;3.40;;;2.30;;
1346;SDS011;667;48.796;9.480;2023-07-29T14:40:13;2.80;;;2.60;;
1346;SDS011;667;48.796;9.480;2023-07-29T14:42:38;5.37;;;2.60;;
1346;SDS011;667;48.796;9.480;2023-07-29T14:45:04;3.00;;;2.67;;
1346;SDS011;667;48.796;9.480;2023-07-29T14:47:30;3.93;;;2.40;;
1346;SDS011;667;48.796;9.480;2023-07-29T14:49:59;2.93;;;2.73;;
1346;SDS011;667;48.796;9.480;2023-07-29T14:52:25;2.60;;;2.40;;
1346;SDS011;667;48.796;9.480;2023-07-29T14:54:51;2.67;;;2.47;;
1346;SDS011;667;48.796;9.480;2023-07-29T14:57:16;2.70;;;2.50;;
1346;SDS011;667;48.796;9.480;2023-07-29T14:59:42;2.40;;;2.20;;
1346;SDS011;667;48.796;9.480;2023-07-29T15:02:08;2.13;;;1.93;;
1346;SDS011;667;48.796;9.480;2023-07-29T15:04:33;2.80;;;2.50;;
1346;SDS011;667;48.796;9.480;2023-07-29T15:06:59;2.30;;;2.10;;
1346;SDS011;667;48.796;9.480;2023-07-29T15:09:25;2.60;;;2.27;;
1346;SDS011;667;48.796;9.480;2023-07-29T15:11:50;2.47;;;2.10;;
1346;SDS011;667;48.796;9.480;2023-07-29T15:14:16;2.43;;;2.23;;
1346;SDS011;667;48.796;9.480;2023-07-29T15:16:41;2.70;;;2.50;;
1346;SDS011;667;48.796;9.480;2023-07-29T15:19:07;4.00;;;2.40;;
1346;SDS011;667;48.796;9.480;2023-07-29T15:21:33;2.70;;;2.50;;
1346;SDS011;667;48.796;9.480;2023-07-29T15:23:58;2.83;;;2.63;;
1346;SDS011;667;48.796;9.480;2023-07-29T15:26:24;2.17;;;2.07;;
1346;SDS011;667;48.796;9.480;2023-07-29T15:28:50;2.63;;;2.43;;
1346;SDS011;667;48.796;9.480;2023-07-29T15:31:15;4.83;;;2.20;;
1346;SDS011;667;48.796;9.480;2023-07-29T15:33:41;2.40;;;2.20;;
1346;SDS011;667;48.796;9.480;2023-07-29T15:36:06;2.60;;;2.40;;
1346;SDS011;667;48.796;9.480;2023-07-29T15:38:32;2.50;;;2.30;;
1346;SDS011;667;48.796;9.480;2023-07-29T15:40:58;2.70;;;2.50;;
1346;SDS011;667;48.796;9.480;2023-07-29T15:43:24;2.50;;;2.30;;
1346;SDS011;667;48.796;9.480;2023-07-29T15:45:50;3.07;;;2.87;;
1346;SDS011;667;48.796;9.480;2023-07-29T15:48:16;2.57;;;2.37;;